Syracuse, NY

3:35 AM EDT on August 30, 2014 (GMT -0400)
MoST* - Armory Square | Change Station
CLOSE
Current Station
Personal Weather Station
Location: Syracuse, NY
Elevation: 400 ft
Nearby Weather Stations

Elev 400 ft 43.05 °N, 76.16 °W | Updated 37 seconds ago

Partly Cloudy
Partly Cloudy
61.1 °F
Feels Like 61.1 °F
N
0.0
Wind Variable Wind from ESE
Gusts 1.0 mph

Today
High -- | Low -- °F
--% Chance of Precip.
Yesterday
High -- | Low -- °F
Precip. -- in
6:26 AM 7:42 PM
Waxing Crescent, 20% visible
Pressure 30.15 in
Visibility 10.0 miles
Clouds Few 22000 ft
Dew Point 53 °F
Humidity 75%
Rainfall 0.00 in
Snow Depth Not available.
UV 0.0 out of 12
Pollen 8.50 out of 12
Ozone Good
PM2.5 Good
Flu Activity Not available.
METAR KSYR 300654Z 11006KT 10SM FEW220 15/12 A3016 RMK AO2 SLP208 T01500122

More Conditions Fewer Conditions

Pressure 30.15 in
Visibility 10.0 miles
Clouds Few 22000 ft
Dew Point 53 °F
Humidity 75%
Rainfall 0.00 in
Snow Depth Not available.
UV 0.0 out of 12
Pollen 8.50 out of 12
Ozone Good
PM2.5 Good
Flu Activity Not available.
METAR KSYR 300654Z 11006KT 10SM FEW220 15/12 A3016 RMK AO2 SLP208 T01500122

More Conditions Fewer Conditions

10-Day Weather Forecast

Almanac

Astronomy

Aug. 30, 2014 Rise Set
Actual Time 6:26 AM EDT 7:42 PM EDT
Civil Twilight 5:57 AM EDT 8:12 PM EDT
Nautical Twilight 5:22 AM EDT 8:47 PM EDT
Astronomical Twilight 4:44 AM EDT 9:24 PM EDT
Moon 11:20 AM EDT 10:06 PM EDT
Length of Visible Light 14h 14m
Length of Day
13h 16m
Tomorrow will be 2m 48s shorter.
Waxing Crescent, 20% of the Moon is Illuminated
Today
Waxing Crescent
Sep 2
First Quarter
Sep 8
Full
Sep 15
Last Quarter
Sep 24
New

Today's Extremes

State Highs State Lows

Community

WunderPhotos

Upload Photos

1,748,463 photos uploaded!

Nearby

Air Quality

  Air Quality AQ Index Pollutant
Yesterday Good
OZONE
Yesterday Good
PM2.5
Current Good
OZONE
Current Good
PM2.5
Saturday Good
OZONE
Saturday Good
PM2.5
Sunday Good
PM2.5
Sunday Good
OZONE
Monday Moderate
OZONE
Monday Moderate
PM2.5
Tuesday Moderate
PM2.5
Tuesday Good
OZONE

Snow Depth

Station Depth Elevation
No new snow has been reported.

Earthquake Activity

City Distance Mag. Time & Date
No recent earthquake activity has been reported nearby.
Minimum magnitude displayed is 2.5.

Coastal Water Temperatures

Place Temperature
No Stations Reporting

Nearby Weather Stations